createdAt,value
2023-01-29T00:01:17.861Z,101604.39
2023-01-29T00:16:20.567Z,101595.92
2023-01-29T00:31:25.523Z,101573.73
2023-01-29T00:46:28.422Z,101557.81
2023-01-29T01:01:49.907Z,101547.77
2023-01-29T01:16:52.592Z,101552.13
2023-01-29T01:31:55.443Z,101551.91
2023-01-29T01:47:01.568Z,101546.38
2023-01-29T02:02:25.117Z,101540.64
2023-01-29T02:17:28.311Z,101541.91
2023-01-29T02:32:54.228Z,101538.21
2023-01-29T02:48:00.216Z,101537.12
2023-01-29T03:03:12.349Z,101518.40
2023-01-29T03:18:22.032Z,101508.56
2023-01-29T03:33:49.008Z,101493.15
2023-01-29T03:49:20.659Z,101463.08
2023-01-29T04:04:40.888Z,101443.69
2023-01-29T04:19:44.380Z,101431.70
2023-01-29T04:35:21.793Z,101413.63
2023-01-29T04:50:36.579Z,101400.02
2023-01-29T05:05:57.386Z,101374.91
2023-01-29T05:21:05.940Z,101375.96
2023-01-29T05:36:09.319Z,101361.30
2023-01-29T05:51:11.787Z,101360.70
2023-01-29T06:06:15.158Z,101374.42
2023-01-29T06:21:19.943Z,101380.02
2023-01-29T06:36:37.484Z,101380.05
2023-01-29T06:51:40.247Z,101399.20
2023-01-29T07:06:44.294Z,101397.59
2023-01-29T07:21:47.281Z,101386.27
2023-01-29T07:36:54.018Z,101367.34
2023-01-29T07:51:56.908Z,101350.04
2023-01-29T08:06:59.835Z,101356.77
2023-01-29T08:22:04.950Z,101377.61
2023-01-29T08:37:07.836Z,101370.09
2023-01-29T08:52:10.701Z,101345.91
2023-01-29T09:07:13.675Z,101316.66
2023-01-29T09:22:16.524Z,101317.73
2023-01-29T09:37:22.489Z,101329.02
2023-01-29T09:52:38.483Z,101326.05
2023-01-29T10:08:04.785Z,101321.20
2023-01-29T10:23:16.819Z,101303.94
2023-01-29T10:38:42.529Z,101281.66
2023-01-29T10:54:15.454Z,101255.42
2023-01-29T11:24:34.330Z,101222.48
2023-01-29T11:39:46.757Z,101196.64
2023-01-29T11:55:26.278Z,101177.71
2023-01-29T12:10:40.574Z,101135.85
2023-01-29T12:25:58.294Z,101139.06
2023-01-29T12:41:28.017Z,101121.52
2023-01-29T12:56:46.173Z,101115.56
2023-01-29T13:11:55.268Z,101099.52
2023-01-29T13:26:58.405Z,101082.92
2023-01-29T13:42:16.453Z,101058.69
2023-01-29T13:57:44.341Z,101060.96
2023-01-29T14:13:09.266Z,101056.58
2023-01-29T14:28:30.330Z,101053.02
2023-01-29T14:43:33.999Z,101041.30
2023-01-29T14:58:46.769Z,101025.95
2023-01-29T15:13:58.444Z,101008.56
2023-01-29T15:29:04.695Z,101003.03
2023-01-29T15:44:22.913Z,100993.52
2023-01-29T15:59:34.631Z,100976.77
2023-01-29T16:14:39.117Z,100972.68
2023-01-29T16:29:42.104Z,100955.46
2023-01-29T16:45:22.921Z,100947.80
2023-01-29T17:00:31.774Z,100941.77
2023-01-29T17:15:44.821Z,100921.59
2023-01-29T17:31:00.215Z,100910.78
2023-01-29T17:46:14.794Z,100893.84
2023-01-29T18:01:17.550Z,100879.64
2023-01-29T18:16:24.206Z,100863.72
2023-01-29T18:31:27.721Z,100864.08
2023-01-29T18:46:30.956Z,100839.42
2023-01-29T19:01:35.363Z,100801.61
2023-01-29T19:16:38.664Z,100791.56
2023-01-29T19:31:42.269Z,100785.04
2023-01-29T19:46:46.280Z,100769.89
2023-01-29T20:01:48.996Z,100750.59
2023-01-29T20:16:51.948Z,100731.06
2023-01-29T20:31:55.059Z,100721.73
2023-01-29T20:47:01.491Z,100703.89
2023-01-29T21:02:04.808Z,100672.38
2023-01-29T21:17:08.190Z,100628.84
2023-01-29T21:32:11.143Z,100615.83
2023-01-29T21:47:14.139Z,100601.56
2023-01-29T22:02:31.766Z,100571.73
2023-01-29T22:17:34.865Z,100543.77
2023-01-29T22:32:37.463Z,100517.80
2023-01-29T22:47:54.894Z,100472.55
2023-01-29T23:02:57.749Z,100438.80
2023-01-29T23:18:00.457Z,100402.04
2023-01-29T23:33:04.016Z,100365.78
2023-01-29T23:48:06.688Z,100331.99
